Time;durP1;ratioP1;P1;durP2;ratioP2;P2;SDS_P1;SDS_P2;PMS_P1;PMS_P2;Temp;Humidity;BMP_temperature;BMP_pressure;BME280_temperature;BME280_humidity;BME280_pressure;Samples;Min_cycle;Max_cycle;Signal;HPM_P1;HPM_P2
2021/08/31 00:01:38;;;;;;;12.32;4.70;;;;;;;;;;4990026;28;20114;-73
2021/08/31 00:04:04;;;;;;;8.70;5.00;;;;;;;;;;4972723;28;20034;-74
2021/08/31 00:06:29;;;;;;;6.50;5.38;;;;;;;;;;4990609;28;20030;-74
2021/08/31 00:08:55;;;;;;;7.43;4.88;;;;;;;;;;4990073;28;20034;-74
2021/08/31 00:11:21;;;;;;;9.40;4.88;;;;;;;;;;4990148;28;20114;-74
2021/08/31 00:13:46;;;;;;;6.07;4.47;;;;;;;;;;4990059;28;20045;-73
2021/08/31 00:16:13;;;;;;;7.43;4.40;;;;;;;;;;4990218;28;20034;-73
2021/08/31 00:18:39;;;;;;;6.82;5.15;;;;;;;;;;4972558;28;20041;-74
2021/08/31 00:21:04;;;;;;;16.13;5.22;;;;;;;;;;4990467;28;20387;-74
2021/08/31 00:23:30;;;;;;;6.13;4.75;;;;;;;;;;4990230;28;20037;-73
2021/08/31 00:25:55;;;;;;;7.85;5.20;;;;;;;;;;4972599;28;20470;-74
2021/08/31 00:28:21;;;;;;;7.50;4.78;;;;;;;;;;4989692;28;20120;-74
2021/08/31 00:30:47;;;;;;;6.72;4.70;;;;;;;;;;4972175;28;20097;-75
2021/08/31 00:33:12;;;;;;;8.98;5.45;;;;;;;;;;4972369;28;20041;-74
2021/08/31 00:35:38;;;;;;;9.85;4.88;;;;;;;;;;4989378;28;20058;-74
2021/08/31 00:38:04;;;;;;;7.13;5.22;;;;;;;;;;4990003;28;20026;-74
2021/08/31 00:40:29;;;;;;;7.93;4.35;;;;;;;;;;4989934;28;20475;-75
2021/08/31 00:42:55;;;;;;;8.52;4.63;;;;;;;;;;4989698;28;20030;-74
2021/08/31 00:45:20;;;;;;;4.90;3.88;;;;;;;;;;4989874;28;20181;-76
2021/08/31 00:47:46;;;;;;;4.80;4.03;;;;;;;;;;4989608;28;20037;-73
2021/08/31 00:50:13;;;;;;;4.57;3.75;;;;;;;;;;4972493;28;20030;-73
2021/08/31 00:52:40;;;;;;;6.30;3.92;;;;;;;;;;4989311;28;20030;-73
2021/08/31 00:55:13;;;;;;;5.20;4.18;;;;;;;;;;4993195;28;20045;-73
2021/08/31 00:57:39;;;;;;;7.88;4.18;;;;;;;;;;5008745;28;20030;-72
2021/08/31 01:00:08;;;;;;;7.15;4.07;;;;;;;;;;4993809;28;20050;-72
2021/08/31 01:02:33;;;;;;;6.00;3.30;;;;;;;;;;4993851;28;20034;-72
2021/08/31 01:05:00;;;;;;;4.70;3.53;;;;;;;;;;4993812;28;20026;-72
2021/08/31 01:07:26;;;;;;;4.72;3.60;;;;;;;;;;4994048;28;20386;-72
2021/08/31 01:09:52;;;;;;;6.32;3.40;;;;;;;;;;4994143;28;20030;-72
2021/08/31 01:12:18;;;;;;;5.63;3.63;;;;;;;;;;4993608;28;20529;-72
2021/08/31 01:14:45;;;;;;;4.72;3.60;;;;;;;;;;4993222;28;20053;-72
2021/08/31 01:17:11;;;;;;;5.75;3.83;;;;;;;;;;4993304;28;20114;-71
2021/08/31 01:19:36;;;;;;;4.30;3.30;;;;;;;;;;4992995;28;20034;-71
2021/08/31 01:22:12;;;;;;;5.75;3.10;;;;;;;;;;4993191;28;20036;-72
2021/08/31 01:24:42;;;;;;;3.90;3.50;;;;;;;;;;4975356;28;20463;-72
2021/08/31 01:27:08;;;;;;;6.00;3.75;;;;;;;;;;4975480;28;20113;-73
2021/08/31 01:29:34;;;;;;;3.35;3.00;;;;;;;;;;4993496;28;20113;-72
2021/08/31 01:32:01;;;;;;;10.27;3.30;;;;;;;;;;4993144;28;20070;-72
2021/08/31 01:34:28;;;;;;;4.88;3.55;;;;;;;;;;4993270;28;20054;-72
2021/08/31 01:36:55;;;;;;;7.63;3.67;;;;;;;;;;4975438;28;20505;-72
2021/08/31 01:39:20;;;;;;;6.43;3.17;;;;;;;;;;4993310;28;20033;-72
2021/08/31 01:41:46;;;;;;;8.38;2.85;;;;;;;;;;4992805;28;20026;-72
2021/08/31 01:44:12;;;;;;;5.63;3.10;;;;;;;;;;4975250;28;20034;-73
2021/08/31 01:46:37;;;;;;;4.28;3.33;;;;;;;;;;4992584;28;20034;-72
2021/08/31 01:49:03;;;;;;;4.18;3.10;;;;;;;;;;4992652;28;20467;-73
2021/08/31 01:51:29;;;;;;;8.10;3.92;;;;;;;;;;4992721;28;20489;-72
2021/08/31 01:53:54;;;;;;;5.15;3.45;;;;;;;;;;4975044;28;20034;-72
2021/08/31 01:56:20;;;;;;;3.92;3.10;;;;;;;;;;4975371;28;20042;-72
2021/08/31 01:58:45;;;;;;;6.30;3.55;;;;;;;;;;4992436;28;20030;-72
2021/08/31 02:01:11;;;;;;;6.68;3.85;;;;;;;;;;4992509;28;20549;-72
2021/08/31 02:03:36;;;;;;;7.05;3.75;;;;;;;;;;4974835;28;20073;-72
2021/08/31 02:06:02;;;;;;;4.43;2.97;;;;;;;;;;4992034;28;20072;-72
2021/08/31 02:08:28;;;;;;;4.25;3.22;;;;;;;;;;4992486;28;20154;-73
2021/08/31 02:10:53;;;;;;;4.43;3.33;;;;;;;;;;4974547;28;20125;-72
2021/08/31 02:13:19;;;;;;;5.20;3.38;;;;;;;;;;4992282;28;20034;-72
2021/08/31 02:15:45;;;;;;;4.57;3.35;;;;;;;;;;4992172;28;20034;-72
2021/08/31 02:18:10;;;;;;;3.85;3.17;;;;;;;;;;4974796;28;20470;-73
2021/08/31 02:20:36;;;;;;;15.68;5.25;;;;;;;;;;4992315;28;20057;-72
2021/08/31 02:23:03;;;;;;;3.97;3.13;;;;;;;;;;4974786;28;20034;-72
2021/08/31 02:25:29;;;;;;;4.80;3.67;;;;;;;;;;5007993;28;20030;-73
2021/08/31 02:27:54;;;;;;;6.97;4.13;;;;;;;;;;4992520;28;20065;-71
2021/08/31 02:30:20;;;;;;;5.25;3.30;;;;;;;;;;4992315;28;20153;-71
2021/08/31 02:32:47;;;;;;;3.75;3.05;;;;;;;;;;4991759;28;20494;-73
2021/08/31 02:35:13;;;;;;;3.90;3.15;;;;;;;;;;4991950;28;20034;-72
2021/08/31 02:37:38;;;;;;;4.93;2.95;;;;;;;;;;4974360;28;20041;-72
2021/08/31 02:40:06;;;;;;;5.18;3.25;;;;;;;;;;4991681;28;20104;-71
2021/08/31 02:42:31;;;;;;;3.97;3.53;;;;;;;;;;4991748;28;20101;-73
2021/08/31 02:44:57;;;;;;;5.30;3.65;;;;;;;;;;4974116;28;20566;-73
2021/08/31 02:47:23;;;;;;;7.93;3.58;;;;;;;;;;4991770;28;20030;-73
2021/08/31 02:49:48;;;;;;;4.60;3.03;;;;;;;;;;4991566;28;20030;-72
2021/08/31 02:52:14;;;;;;;5.82;3.40;;;;;;;;;;4991497;28;20038;-73
2021/08/31 02:54:40;;;;;;;5.22;3.67;;;;;;;;;;4973927;28;20401;-73
2021/08/31 02:57:06;;;;;;;5.25;3.33;;;;;;;;;;4973926;28;20422;-72
2021/08/31 02:59:31;;;;;;;5.78;4.35;;;;;;;;;;4991349;28;20330;-72
2021/08/31 03:04:22;;;;;;;6.13;3.30;;;;;;;;;;4991625;28;20034;-72
2021/08/31 03:06:48;;;;;;;4.72;3.95;;;;;;;;;;4973601;28;20486;-71
2021/08/31 03:09:14;;;;;;;5.25;2.97;;;;;;;;;;4973805;28;20124;-72
2021/08/31 03:11:40;;;;;;;5.25;3.42;;;;;;;;;;4973349;28;20038;-72
2021/08/31 03:14:05;;;;;;;6.22;3.30;;;;;;;;;;4973814;28;20118;-71
2021/08/31 03:16:31;;;;;;;5.55;3.42;;;;;;;;;;4990663;28;20568;-72
2021/08/31 03:18:56;;;;;;;6.88;3.38;;;;;;;;;;4991345;28;20033;-72
2021/08/31 03:21:22;;;;;;;4.85;2.90;;;;;;;;;;4991028;28;20025;-73
2021/08/31 03:23:47;;;;;;;6.28;3.17;;;;;;;;;;4990931;28;20045;-71
2021/08/31 03:26:13;;;;;;;4.25;2.97;;;;;;;;;;4990955;28;20179;-71
2021/08/31 03:28:38;;;;;;;5.38;3.45;;;;;;;;;;4990639;28;20057;-72
2021/08/31 03:31:04;;;;;;;4.97;3.25;;;;;;;;;;4957155;28;20616;-71
2021/08/31 03:33:29;;;;;;;7.13;3.72;;;;;;;;;;4973513;28;20548;-71
2021/08/31 03:35:55;;;;;;;6.20;3.88;;;;;;;;;;4973138;28;20504;-72
2021/08/31 03:38:20;;;;;;;4.05;3.20;;;;;;;;;;4990519;28;20034;-71
2021/08/31 03:40:46;;;;;;;4.65;2.95;;;;;;;;;;5005323;28;20082;-71
2021/08/31 03:43:11;;;;;;;4.80;2.45;;;;;;;;;;4990773;28;20062;-73
2021/08/31 03:45:37;;;;;;;2.72;2.25;;;;;;;;;;4973046;28;20065;-71
2021/08/31 03:48:02;;;;;;;5.78;2.70;;;;;;;;;;4990193;28;20034;-73
2021/08/31 03:50:28;;;;;;;4.30;3.05;;;;;;;;;;4990448;28;20034;-71
2021/08/31 03:52:53;;;;;;;2.85;2.42;;;;;;;;;;4990147;28;20527;-70
2021/08/31 03:55:19;;;;;;;5.80;3.38;;;;;;;;;;4990598;28;20030;-71
2021/08/31 03:57:44;;;;;;;6.18;2.97;;;;;;;;;;5005121;28;20434;-71
2021/08/31 04:00:10;;;;;;;6.80;4.07;;;;;;;;;;4990509;28;20122;-72
2021/08/31 04:02:37;;;;;;;5.32;3.85;;;;;;;;;;4990446;28;20033;-72
2021/08/31 04:05:03;;;;;;;7.93;4.35;;;;;;;;;;4989994;28;20085;-72
2021/08/31 04:07:28;;;;;;;9.70;5.28;;;;;;;;;;4972747;28;20033;-72
2021/08/31 04:09:55;;;;;;;6.50;4.30;;;;;;;;;;4989967;28;20034;-71
2021/08/31 04:12:23;;;;;;;9.77;6.20;;;;;;;;;;4990344;28;20089;-72
2021/08/31 04:14:48;;;;;;;10.50;6.00;;;;;;;;;;4990194;28;20049;-71
2021/08/31 04:17:14;;;;;;;11.88;6.63;;;;;;;;;;5005115;28;20439;-70
2021/08/31 04:19:41;;;;;;;11.73;5.90;;;;;;;;;;4990354;28;20386;-73
2021/08/31 04:22:06;;;;;;;12.10;6.78;;;;;;;;;;4972488;28;20113;-71
2021/08/31 04:24:32;;;;;;;13.68;7.57;;;;;;;;;;5005376;28;20126;-72
2021/08/31 04:26:57;;;;;;;14.90;7.75;;;;;;;;;;4970048;28;20376;-71
2021/08/31 04:29:23;;;;;;;13.75;8.15;;;;;;;;;;4974110;28;20031;-70
2021/08/31 04:31:48;;;;;;;14.45;7.97;;;;;;;;;;4975473;28;20035;-71
2021/08/31 04:34:15;;;;;;;14.02;7.50;;;;;;;;;;4985235;28;20034;-72
2021/08/31 04:36:40;;;;;;;15.07;7.63;;;;;;;;;;4994623;28;20208;-73
2021/08/31 04:39:06;;;;;;;12.77;7.53;;;;;;;;;;5008690;28;20372;-71
2021/08/31 04:41:33;;;;;;;15.23;8.68;;;;;;;;;;5008795;28;20030;-73
2021/08/31 04:43:58;;;;;;;15.27;7.93;;;;;;;;;;4993436;28;20023;-72
2021/08/31 04:46:24;;;;;;;17.58;8.77;;;;;;;;;;4993808;28;20041;-72
2021/08/31 04:48:49;;;;;;;16.80;8.70;;;;;;;;;;4993467;28;20030;-72
2021/08/31 04:51:15;;;;;;;18.58;10.48;;;;;;;;;;4993599;28;20090;-73
2021/08/31 04:53:40;;;;;;;18.38;9.73;;;;;;;;;;4976096;28;20375;-72
2021/08/31 04:56:06;;;;;;;16.65;9.50;;;;;;;;;;4993477;28;20034;-72
2021/08/31 04:58:31;;;;;;;18.48;9.80;;;;;;;;;;4975837;28;20030;-74
2021/08/31 05:00:57;;;;;;;16.67;9.73;;;;;;;;;;4993057;28;20045;-74
2021/08/31 05:03:23;;;;;;;18.83;10.52;;;;;;;;;;4993464;28;20387;-75
2021/08/31 05:05:49;;;;;;;20.60;10.18;;;;;;;;;;4993003;28;20042;-75
2021/08/31 05:08:14;;;;;;;19.25;9.07;;;;;;;;;;4993402;28;20105;-72
2021/08/31 05:10:40;;;;;;;15.60;8.90;;;;;;;;;;5007726;28;20125;-73
2021/08/31 05:13:05;;;;;;;16.20;9.48;;;;;;;;;;4975590;28;20034;-71
2021/08/31 05:15:32;;;;;;;13.73;8.80;;;;;;;;;;4992629;28;20093;-72
2021/08/31 05:17:58;;;;;;;18.17;9.52;;;;;;;;;;4970039;28;20061;-73
2021/08/31 05:20:25;;;;;;;14.18;8.05;;;;;;;;;;4991527;28;20034;-74
2021/08/31 05:22:51;;;;;;;15.60;9.30;;;;;;;;;;4991066;28;20026;-73
2021/08/31 05:25:18;;;;;;;16.65;8.73;;;;;;;;;;4999227;28;20038;-73
2021/08/31 05:27:43;;;;;;;17.60;8.70;;;;;;;;;;4993057;28;20109;-73
2021/08/31 05:30:10;;;;;;;14.88;8.00;;;;;;;;;;4993655;28;20034;-72
2021/08/31 05:32:35;;;;;;;12.10;7.75;;;;;;;;;;4976238;28;20037;-72
2021/08/31 05:35:01;;;;;;;13.32;7.35;;;;;;;;;;4976167;28;20034;-73
2021/08/31 05:37:26;;;;;;;11.25;6.93;;;;;;;;;;4993741;28;20144;-73
2021/08/31 05:39:52;;;;;;;11.23;7.00;;;;;;;;;;4994759;28;20387;-74
2021/08/31 05:42:17;;;;;;;11.52;6.43;;;;;;;;;;4993452;28;20041;-72
2021/08/31 05:44:43;;;;;;;14.13;6.95;;;;;;;;;;4994896;28;20462;-74
2021/08/31 05:47:08;;;;;;;16.15;7.18;;;;;;;;;;4994330;28;20026;-73
2021/08/31 05:49:34;;;;;;;12.75;6.18;;;;;;;;;;4993480;28;20121;-73
2021/08/31 05:52:00;;;;;;;12.55;6.65;;;;;;;;;;4991540;28;20053;-74
2021/08/31 05:54:27;;;;;;;11.85;7.13;;;;;;;;;;4979894;28;20529;-73
2021/08/31 05:56:59;;;;;;;17.63;7.55;;;;;;;;;;4984755;28;20041;-74
2021/08/31 05:59:24;;;;;;;14.60;8.52;;;;;;;;;;4974521;28;20121;-74
2021/08/31 06:01:49;;;;;;;13.70;8.38;;;;;;;;;;4992874;28;20057;-74
2021/08/31 06:04:16;;;;;;;13.00;8.68;;;;;;;;;;4975432;28;20038;-74
2021/08/31 06:06:42;;;;;;;13.98;7.85;;;;;;;;;;4993113;28;20451;-72
2021/08/31 06:09:08;;;;;;;17.20;8.77;;;;;;;;;;4992422;28;20061;-73
2021/08/31 06:11:38;;;;;;;15.98;8.98;;;;;;;;;;4992364;28;20116;-73
2021/08/31 06:14:08;;;;;;;15.55;9.25;;;;;;;;;;4993418;28;20038;-74
2021/08/31 06:16:34;;;;;;;20.95;9.10;;;;;;;;;;4987352;28;20147;-74
2021/08/31 06:19:00;;;;;;;17.98;9.55;;;;;;;;;;4966543;28;20534;-73
2021/08/31 06:21:27;;;;;;;13.55;8.13;;;;;;;;;;4977147;28;20168;-71
2021/08/31 06:23:52;;;;;;;26.42;9.77;;;;;;;;;;4972893;28;20018;-73
2021/08/31 06:26:19;;;;;;;17.77;9.45;;;;;;;;;;4993990;28;20622;-74
2021/08/31 06:28:45;;;;;;;22.45;10.57;;;;;;;;;;4980764;28;20086;-74
2021/08/31 06:31:11;;;;;;;13.80;9.15;;;;;;;;;;4972902;28;20026;-72
2021/08/31 06:33:36;;;;;;;17.10;8.70;;;;;;;;;;4970273;28;20086;-72
2021/08/31 06:36:05;;;;;;;63.17;12.07;;;;;;;;;;4988039;28;20378;-72
2021/08/31 06:38:30;;;;;;;15.95;8.65;;;;;;;;;;4986741;28;20363;-73
2021/08/31 06:40:56;;;;;;;13.60;8.15;;;;;;;;;;4984912;28;20030;-72
2021/08/31 06:43:21;;;;;;;14.43;8.75;;;;;;;;;;4968694;28;20355;-73
2021/08/31 06:45:47;;;;;;;88.93;13.25;;;;;;;;;;4968232;28;20065;-73
2021/08/31 06:48:12;;;;;;;11.63;8.13;;;;;;;;;;4987781;28;20052;-71
2021/08/31 06:50:38;;;;;;;20.02;12.07;;;;;;;;;;4972511;28;20425;-71
2021/08/31 06:53:04;;;;;;;12.23;7.65;;;;;;;;;;4993527;28;20066;-72
2021/08/31 06:55:29;;;;;;;13.05;8.63;;;;;;;;;;4989198;28;20748;-72
2021/08/31 06:57:55;;;;;;;15.40;8.95;;;;;;;;;;4972236;28;20038;-72
2021/08/31 07:00:21;;;;;;;12.77;7.88;;;;;;;;;;4989906;28;20037;-71
2021/08/31 07:02:47;;;;;;;16.10;8.18;;;;;;;;;;4990283;28;20083;-72
2021/08/31 07:05:12;;;;;;;16.88;9.25;;;;;;;;;;4990293;28;20033;-72
2021/08/31 07:07:38;;;;;;;13.30;8.38;;;;;;;;;;4969743;28;20541;-71
2021/08/31 07:10:05;;;;;;;13.02;8.27;;;;;;;;;;4993176;28;20359;-73
2021/08/31 07:12:31;;;;;;;13.20;9.50;;;;;;;;;;4972377;28;20120;-73
2021/08/31 07:14:58;;;;;;;15.77;8.02;;;;;;;;;;4970874;28;20034;-73
2021/08/31 07:17:25;;;;;;;11.52;7.93;;;;;;;;;;4972861;28;20026;-75
2021/08/31 07:19:51;;;;;;;10.82;8.20;;;;;;;;;;4997661;28;20164;-73
2021/08/31 07:22:17;;;;;;;16.63;7.90;;;;;;;;;;4981614;28;20146;-74
2021/08/31 07:24:43;;;;;;;16.80;8.68;;;;;;;;;;4989214;28;20034;-72
2021/08/31 07:27:09;;;;;;;17.95;9.30;;;;;;;;;;4971124;28;20053;-73
2021/08/31 07:29:34;;;;;;;12.35;8.23;;;;;;;;;;4989193;28;20034;-72
2021/08/31 07:32:00;;;;;;;18.10;8.73;;;;;;;;;;4986474;28;20104;-72
2021/08/31 07:34:28;;;;;;;11.38;7.50;;;;;;;;;;4969593;28;20170;-72
2021/08/31 07:36:56;;;;;;;49.25;10.73;;;;;;;;;;4981401;28;20118;-73
2021/08/31 07:39:21;;;;;;;16.13;8.15;;;;;;;;;;5004434;28;20041;-72
2021/08/31 07:41:47;;;;;;;20.80;9.95;;;;;;;;;;4980638;28;20030;-71
2021/08/31 07:44:13;;;;;;;18.63;7.88;;;;;;;;;;4957116;28;20056;-72
2021/08/31 07:46:40;;;;;;;12.60;8.15;;;;;;;;;;4997157;28;20065;-72
2021/08/31 07:49:06;;;;;;;17.33;9.25;;;;;;;;;;4982064;28;20545;-72
2021/08/31 07:51:32;;;;;;;21.63;9.18;;;;;;;;;;4983478;28;20069;-76
2021/08/31 07:53:57;;;;;;;42.58;18.45;;;;;;;;;;4980438;28;20041;-74
2021/08/31 07:56:22;;;;;;;15.90;9.35;;;;;;;;;;4971952;28;20496;-73
2021/08/31 07:58:48;;;;;;;14.52;8.82;;;;;;;;;;4986625;28;20096;-74
2021/08/31 08:01:13;;;;;;;14.30;8.20;;;;;;;;;;4987552;28;20030;-73
2021/08/31 08:03:42;;;;;;;13.82;9.32;;;;;;;;;;4984996;28;20142;-72
2021/08/31 08:06:08;;;;;;;16.30;8.95;;;;;;;;;;4987593;28;20058;-72
2021/08/31 08:08:33;;;;;;;18.92;9.40;;;;;;;;;;4969805;28;20026;-73
2021/08/31 08:10:59;;;;;;;16.17;10.25;;;;;;;;;;4970039;28;20030;-72
2021/08/31 08:13:24;;;;;;;18.33;10.02;;;;;;;;;;4971284;28;20553;-74
2021/08/31 08:15:50;;;;;;;16.92;10.60;;;;;;;;;;4988339;28;20540;-73
2021/08/31 08:18:15;;;;;;;19.13;10.65;;;;;;;;;;4970497;28;20105;-73
2021/08/31 08:20:43;;;;;;;23.70;10.07;;;;;;;;;;4986081;28;20030;-74
2021/08/31 08:23:08;;;;;;;15.65;9.73;;;;;;;;;;4970384;28;20038;-72
2021/08/31 08:25:34;;;;;;;31.73;9.77;;;;;;;;;;4968828;28;20424;-73
2021/08/31 08:28:00;;;;;;;16.00;8.00;;;;;;;;;;4966285;28;20055;-73
2021/08/31 08:30:25;;;;;;;21.27;9.18;;;;;;;;;;4978263;28;20125;-72
2021/08/31 08:32:52;;;;;;;22.30;8.93;;;;;;;;;;4984217;28;20031;-74
2021/08/31 08:35:18;;;;;;;12.25;7.05;;;;;;;;;;4977526;28;20038;-73
2021/08/31 08:37:45;;;;;;;12.82;8.10;;;;;;;;;;4974445;28;20026;-72
2021/08/31 08:40:11;;;;;;;13.38;8.32;;;;;;;;;;4987450;28;20046;-73
2021/08/31 08:42:38;;;;;;;12.02;6.80;;;;;;;;;;4968646;28;20057;-73
2021/08/31 08:45:06;;;;;;;13.32;7.63;;;;;;;;;;4987469;28;20038;-77
2021/08/31 08:47:33;;;;;;;15.40;7.40;;;;;;;;;;4986842;28;20412;-72
2021/08/31 08:50:00;;;;;;;10.00;6.57;;;;;;;;;;4980373;28;20393;-74
2021/08/31 08:52:26;;;;;;;14.70;7.22;;;;;;;;;;4991441;28;20084;-73
2021/08/31 08:54:51;;;;;;;16.35;6.78;;;;;;;;;;4982679;28;20038;-74
2021/08/31 08:57:26;;;;;;;11.98;6.50;;;;;;;;;;4964022;28;20039;-72
2021/08/31 08:59:51;;;;;;;15.23;6.40;;;;;;;;;;4967545;28;20129;-73
2021/08/31 09:02:40;;;;;;;9.18;5.75;;;;;;;;;;4976636;28;20133;-74
2021/08/31 09:05:09;;;;;;;12.40;5.72;;;;;;;;;;4966453;28;20045;-72
2021/08/31 09:07:40;;;;;;;11.23;6.18;;;;;;;;;;4962169;28;20038;-72
2021/08/31 09:10:22;;;;;;;17.55;6.80;;;;;;;;;;4967466;28;20433;-70
2021/08/31 09:12:50;;;;;;;8.52;5.88;;;;;;;;;;4971664;28;20041;-72
2021/08/31 09:15:24;;;;;;;11.55;6.38;;;;;;;;;;4984620;28;20061;-73
2021/08/31 09:18:05;;;;;;;9.80;6.18;;;;;;;;;;4973105;28;20034;-72
2021/08/31 09:20:32;;;;;;;9.43;6.03;;;;;;;;;;4972807;28;20610;-74
2021/08/31 09:22:58;;;;;;;11.32;5.38;;;;;;;;;;4970697;28;20042;-75
2021/08/31 09:25:40;;;;;;;9.23;6.10;;;;;;;;;;4986866;28;20038;-73
2021/08/31 09:28:30;;;;;;;8.38;5.40;;;;;;;;;;4985160;28;20069;-74
2021/08/31 09:30:57;;;;;;;10.73;6.07;;;;;;;;;;4984824;28;20065;-73
2021/08/31 09:33:29;;;;;;;10.20;6.65;;;;;;;;;;4972216;28;20069;-74
2021/08/31 09:36:03;;;;;;;9.38;5.80;;;;;;;;;;4985710;28;20026;-73
2021/08/31 09:38:40;;;;;;;9.27;5.93;;;;;;;;;;4967649;28;20034;-71
2021/08/31 09:41:06;;;;;;;8.95;5.72;;;;;;;;;;4990332;28;20018;-73
2021/08/31 09:43:33;;;;;;;8.38;5.68;;;;;;;;;;4994693;28;20116;-71
2021/08/31 09:45:58;;;;;;;10.40;5.65;;;;;;;;;;4974969;28;20072;-73
2021/08/31 09:48:24;;;;;;;14.68;6.10;;;;;;;;;;4977022;28;20034;-72
2021/08/31 09:50:51;;;;;;;8.18;5.85;;;;;;;;;;4968850;28;20045;-73
2021/08/31 09:53:20;;;;;;;10.95;6.20;;;;;;;;;;4990585;28;20033;-73
2021/08/31 09:56:04;;;;;;;8.05;5.18;;;;;;;;;;4971862;28;20149;-72
2021/08/31 09:58:32;;;;;;;8.80;5.05;;;;;;;;;;4984937;28;20042;-73
2021/08/31 10:01:01;;;;;;;8.60;4.63;;;;;;;;;;4986430;28;20076;-72
2021/08/31 10:03:27;;;;;;;8.23;4.35;;;;;;;;;;4969184;28;20125;-73
2021/08/31 10:05:55;;;;;;;6.50;4.50;;;;;;;;;;4972597;28;20072;-72
2021/08/31 10:08:21;;;;;;;11.43;5.65;;;;;;;;;;4950163;28;20042;-73
2021/08/31 10:10:49;;;;;;;8.23;4.97;;;;;;;;;;4988079;28;20026;-73
2021/08/31 10:13:17;;;;;;;8.15;4.78;;;;;;;;;;4966764;28;20129;-73
2021/08/31 10:15:49;;;;;;;7.90;4.65;;;;;;;;;;4983096;28;20037;-72
2021/08/31 10:18:15;;;;;;;;;;;;;;;;;;4977879;28;20038;-73
2021/08/31 10:20:46;;;;;;;13.30;5.00;;;;;;;;;;4961617;28;20009;-73
2021/08/31 10:23:15;;;;;;;;;;;;;;;;;;4968728;28;20037;-72
2021/08/31 10:25:41;;;;;;;6.72;4.32;;;;;;;;;;4965473;28;19941;-73
2021/08/31 10:28:27;;;;;;;7.28;4.20;;;;;;;;;;4992039;28;20058;-73
2021/08/31 10:30:55;;;;;;;6.55;4.40;;;;;;;;;;4966586;28;20038;-73
2021/08/31 10:33:39;;;;;;;5.43;3.55;;;;;;;;;;4988579;28;20041;-74
2021/08/31 10:36:07;;;;;;;6.47;3.30;;;;;;;;;;4983120;28;20676;-71
2021/08/31 10:38:49;;;;;;;8.85;4.80;;;;;;;;;;4970946;28;20034;-75
2021/08/31 10:41:31;;;;;;;46.72;5.90;;;;;;;;;;4970593;28;20092;-72
2021/08/31 10:43:58;;;;;;;7.40;3.15;;;;;;;;;;4967601;28;20030;-74
2021/08/31 10:46:25;;;;;;;5.40;3.60;;;;;;;;;;4967066;28;20026;-72
2021/08/31 10:49:02;;;;;;;7.00;3.63;;;;;;;;;;4987586;28;20029;-73
2021/08/31 10:51:28;;;;;;;4.78;3.50;;;;;;;;;;4992738;28;20498;-72
2021/08/31 10:53:54;;;;;;;8.27;3.83;;;;;;;;;;4972290;28;20054;-75
2021/08/31 10:56:22;;;;;;;5.47;2.78;;;;;;;;;;4989007;28;20026;-73
2021/08/31 10:58:54;;;;;;;5.80;3.38;;;;;;;;;;4980676;28;20113;-73
2021/08/31 11:01:23;;;;;;;;;;;;;;;;;;4965669;28;20029;-73
2021/08/31 11:03:52;;;;;;;4.88;2.35;;;;;;;;;;4981829;28;19921;-71
2021/08/31 11:06:32;;;;;;;3.60;3.00;;;;;;;;;;4984875;28;20046;-74
2021/08/31 11:09:06;;;;;;;4.93;2.83;;;;;;;;;;4984909;28;20630;-72
2021/08/31 11:11:35;;;;;;;4.82;2.30;;;;;;;;;;4970336;28;20038;-71
2021/08/31 11:14:00;;;;;;;7.22;3.28;;;;;;;;;;4968363;28;20092;-74
2021/08/31 11:16:28;;;;;;;3.30;2.90;;;;;;;;;;4967903;28;20467;-73
2021/08/31 11:18:54;;;;;;;5.18;3.05;;;;;;;;;;4966725;28;20148;-74
2021/08/31 11:21:22;;;;;;;5.22;3.33;;;;;;;;;;4972342;28;20034;-73
2021/08/31 11:23:48;;;;;;;5.45;3.13;;;;;;;;;;4987343;28;20049;-73
2021/08/31 11:26:24;;;;;;;4.95;2.80;;;;;;;;;;4982112;28;20573;-73
2021/08/31 11:28:50;;;;;;;4.60;2.85;;;;;;;;;;4975037;28;20053;-73
2021/08/31 11:31:28;;;;;;;7.88;2.85;;;;;;;;;;4968471;28;20033;-73
2021/08/31 11:33:55;;;;;;;4.53;2.80;;;;;;;;;;4980034;28;20081;-73
2021/08/31 11:36:28;;;;;;;4.60;3.10;;;;;;;;;;4960565;28;20144;-75
2021/08/31 11:39:01;;;;;;;7.55;3.42;;;;;;;;;;4985118;28;20026;-73
2021/08/31 11:41:33;;;;;;;3.53;3.00;;;;;;;;;;4963547;28;20045;-72
2021/08/31 11:44:16;;;;;;;11.45;3.78;;;;;;;;;;4965103;28;20129;-74
2021/08/31 11:46:44;;;;;;;5.20;3.45;;;;;;;;;;4963623;28;20026;-73
2021/08/31 11:49:24;;;;;;;6.15;3.83;;;;;;;;;;4984710;28;20026;-71
2021/08/31 11:52:08;;;;;;;5.05;4.03;;;;;;;;;;4984239;28;20109;-73
2021/08/31 11:54:39;;;;;;;13.35;4.03;;;;;;;;;;4979922;28;20486;-75
2021/08/31 11:57:07;;;;;;;9.32;4.60;;;;;;;;;;4959277;28;20045;-72
2021/08/31 11:59:50;;;;;;;9.57;4.78;;;;;;;;;;4959980;28;20042;-72
2021/08/31 12:02:25;;;;;;;5.18;3.72;;;;;;;;;;4966431;28;20398;-74
2021/08/31 12:04:57;;;;;;;7.57;3.90;;;;;;;;;;4981532;28;20038;-73
2021/08/31 12:07:44;;;;;;;7.57;4.38;;;;;;;;;;4984873;28;20484;-72
2021/08/31 12:10:12;;;;;;;7.60;4.15;;;;;;;;;;4980420;28;20384;-73
2021/08/31 12:12:41;;;;;;;7.43;4.45;;;;;;;;;;4981331;28;20117;-72
2021/08/31 12:15:09;;;;;;;8.05;4.40;;;;;;;;;;4981056;28;20050;-74
2021/08/31 12:17:42;;;;;;;6.35;3.95;;;;;;;;;;4963629;28;20959;-72
2021/08/31 12:20:24;;;;;;;6.43;4.85;;;;;;;;;;4965358;28;20054;-73
2021/08/31 12:22:52;;;;;;;7.47;4.63;;;;;;;;;;4982051;28;20105;-74
2021/08/31 12:25:19;;;;;;;6.85;4.03;;;;;;;;;;4982957;28;20045;-72
2021/08/31 12:27:46;;;;;;;8.27;5.80;;;;;;;;;;4984279;28;21440;-73
2021/08/31 12:30:15;;;;;;;9.45;5.07;;;;;;;;;;4985561;28;20034;-71
2021/08/31 12:32:41;;;;;;;6.65;4.45;;;;;;;;;;4963982;28;20022;-76
2021/08/31 12:35:27;;;;;;;7.65;4.70;;;;;;;;;;4979228;28;20058;-74
2021/08/31 12:38:03;;;;;;;7.13;4.50;;;;;;;;;;4968657;28;20482;-73
2021/08/31 12:40:29;;;;;;;10.95;5.82;;;;;;;;;;4986872;28;20026;-72
2021/08/31 12:43:09;;;;;;;15.38;8.43;;;;;;;;;;4990869;28;20045;-72
2021/08/31 12:45:36;;;;;;;6.95;4.40;;;;;;;;;;4974906;28;20034;-73
2021/08/31 12:48:03;;;;;;;7.50;4.45;;;;;;;;;;4967948;28;20086;-72
2021/08/31 12:50:30;;;;;;;11.30;4.53;;;;;;;;;;4989463;28;20101;-74
2021/08/31 12:53:07;;;;;;;6.65;3.80;;;;;;;;;;4988244;28;20525;-76
2021/08/31 12:55:35;;;;;;;5.30;4.10;;;;;;;;;;4989544;28;20030;-72
2021/08/31 12:58:30;;;;;;;7.03;4.07;;;;;;;;;;4991034;28;20026;-73
2021/08/31 13:01:15;;;;;;;6.32;4.18;;;;;;;;;;4990228;28;20026;-72
2021/08/31 13:03:51;;;;;;;5.97;4.05;;;;;;;;;;4987334;28;20044;-73
2021/08/31 13:06:32;;;;;;;9.20;5.38;;;;;;;;;;4985014;28;20065;-72
2021/08/31 13:08:59;;;;;;;;;;;;;;;;;;4995791;28;20061;-72
2021/08/31 13:11:26;;;;;;;5.90;4.40;;;;;;;;;;4993006;28;19927;-74
2021/08/31 13:13:52;;;;;;;11.20;4.93;;;;;;;;;;4992012;28;20023;-72
2021/08/31 13:16:18;;;;;;;7.15;4.10;;;;;;;;;;4989223;28;20084;-74
2021/08/31 13:18:44;;;;;;;8.32;4.47;;;;;;;;;;4956288;28;20042;-73
2021/08/31 13:21:09;;;;;;;10.50;5.25;;;;;;;;;;4956108;28;20034;-72
2021/08/31 13:23:35;;;;;;;17.60;4.93;;;;;;;;;;4987066;28;20109;-72
2021/08/31 13:26:00;;;;;;;10.43;4.60;;;;;;;;;;4986377;28;20036;-73
2021/08/31 13:28:26;;;;;;;9.93;4.20;;;;;;;;;;4986701;28;20054;-73
2021/08/31 13:30:51;;;;;;;8.23;4.47;;;;;;;;;;4988244;28;20053;-73
2021/08/31 13:33:19;;;;;;;8.55;4.60;;;;;;;;;;4988478;28;20379;-72
2021/08/31 13:35:46;;;;;;;8.50;4.93;;;;;;;;;;4967853;28;20173;-72
2021/08/31 13:38:11;;;;;;;6.72;4.88;;;;;;;;;;4988546;28;20038;-73
2021/08/31 13:40:37;;;;;;;23.23;11.55;;;;;;;;;;4987386;28;20033;-72
2021/08/31 13:43:02;;;;;;;8.27;5.55;;;;;;;;;;4985985;28;20030;-74
2021/08/31 13:45:28;;;;;;;7.30;5.03;;;;;;;;;;4970640;28;20199;-73
2021/08/31 13:47:55;;;;;;;10.35;5.80;;;;;;;;;;4985922;28;20034;-73
2021/08/31 13:50:24;;;;;;;8.95;4.57;;;;;;;;;;4980526;28;20033;-72
2021/08/31 13:52:50;;;;;;;16.92;6.45;;;;;;;;;;4995370;28;20042;-72
2021/08/31 13:55:15;;;;;;;8.63;4.07;;;;;;;;;;4971807;28;20038;-71
2021/08/31 13:57:41;;;;;;;8.02;4.32;;;;;;;;;;4992932;28;20038;-73
2021/08/31 14:00:07;;;;;;;7.97;3.75;;;;;;;;;;4984047;28;20030;-72
2021/08/31 14:02:33;;;;;;;9.52;4.43;;;;;;;;;;4966967;28;20022;-71
2021/08/31 14:04:59;;;;;;;8.52;4.22;;;;;;;;;;4990565;28;20119;-74
2021/08/31 14:07:24;;;;;;;7.32;4.53;;;;;;;;;;4974666;28;20122;-73
2021/08/31 14:09:52;;;;;;;7.68;4.63;;;;;;;;;;4970366;28;20030;-73
2021/08/31 14:12:20;;;;;;;7.68;5.10;;;;;;;;;;4985038;28;20038;-73
2021/08/31 14:14:46;;;;;;;7.63;5.25;;;;;;;;;;4990474;28;20030;-73
2021/08/31 14:17:12;;;;;;;9.68;4.82;;;;;;;;;;4952900;28;20045;-74
2021/08/31 14:19:39;;;;;;;12.15;5.40;;;;;;;;;;4991803;28;20041;-72
2021/08/31 14:22:08;;;;;;;8.05;5.32;;;;;;;;;;4970131;28;20510;-73
2021/08/31 14:24:34;;;;;;;10.48;5.70;;;;;;;;;;4987161;28;20129;-72
2021/08/31 14:27:01;;;;;;;10.43;5.80;;;;;;;;;;4983085;28;20045;-74
2021/08/31 14:29:27;;;;;;;9.77;5.78;;;;;;;;;;4971378;28;20793;-74
2021/08/31 14:31:53;;;;;;;8.75;5.88;;;;;;;;;;4990929;28;20137;-74
2021/08/31 14:34:19;;;;;;;9.52;5.70;;;;;;;;;;4971523;28;20034;-74
2021/08/31 14:36:47;;;;;;;11.45;6.38;;;;;;;;;;4990871;28;20041;-73
2021/08/31 14:39:13;;;;;;;9.68;6.28;;;;;;;;;;4970681;28;20026;-73
2021/08/31 14:41:38;;;;;;;11.63;6.55;;;;;;;;;;4988320;28;20023;-74
2021/08/31 14:44:05;;;;;;;9.30;6.35;;;;;;;;;;4968341;28;20157;-74